Time;durP1;ratioP1;P1;durP2;ratioP2;P2;SDS_P1;SDS_P2;PMS_P1;PMS_P2;Temp;Humidity;BMP_temperature;BMP_pressure;BME280_temperature;BME280_humidity;BME280_pressure;Samples;Min_cycle;Max_cycle;Signal;HPM_P1;HPM_P2
2022/09/11 00:02:06;;;;;;;;;;;16.50;77.10;;;;;;5070692;28;20293;-70
2022/09/11 00:04:33;;;;;;;;;;;16.60;76.00;;;;;;5070420;28;20365;-70
2022/09/11 00:06:59;;;;;;;;;;;16.60;75.30;;;;;;5070615;28;19908;-70
2022/09/11 00:09:26;;;;;;;;;;;16.70;76.50;;;;;;5070246;28;19942;-69
2022/09/11 00:11:52;;;;;;;;;;;16.80;76.20;;;;;;5069989;28;20381;-69
2022/09/11 00:14:19;;;;;;;;;;;16.90;74.90;;;;;;5069900;28;20420;-72
2022/09/11 00:16:46;;;;;;;;;;;17.00;75.30;;;;;;5069443;28;19912;-70
2022/09/11 00:19:17;;;;;;;;;;;17.00;74.00;;;;;;5073446;28;19920;-70
2022/09/11 00:21:44;;;;;;;;;;;17.00;73.00;;;;;;5073670;28;19908;-68
2022/09/11 00:24:11;;;;;;;;;;;17.10;74.60;;;;;;5074159;28;19912;-70
2022/09/11 00:26:39;;;;;;;;;;;17.10;74.30;;;;;;5075721;28;19954;-68
2022/09/11 00:29:06;;;;;;;;;;;17.20;75.00;;;;;;5075055;28;19928;-70
2022/09/11 00:31:33;;;;;;;;;;;17.20;73.00;;;;;;5075425;28;19913;-68
2022/09/11 00:34:00;;;;;;;;;;;17.20;73.90;;;;;;5075455;28;19946;-69
2022/09/11 00:36:28;;;;;;;;;;;17.20;73.20;;;;;;5075268;28;20031;-68
2022/09/11 00:38:55;;;;;;;;;;;17.30;73.00;;;;;;5075242;28;19912;-69
2022/09/11 00:41:24;;;;;;;;;;;17.30;73.00;;;;;;5075292;28;20387;-70
2022/09/11 00:43:52;;;;;;;;;;;17.30;73.90;;;;;;5075082;28;20450;-70
2022/09/11 00:46:19;;;;;;;;;;;17.40;73.30;;;;;;5075461;28;20365;-71
2022/09/11 00:48:50;;;;;;;;;;;17.50;73.20;;;;;;5074752;28;20369;-69
2022/09/11 00:51:19;;;;;;;;;;;17.50;73.20;;;;;;5075327;28;19959;-70
2022/09/11 00:53:46;;;;;;;;;;;17.60;72.00;;;;;;5075237;28;19970;-69
2022/09/11 00:56:13;;;;;;;;;;;17.60;72.10;;;;;;5074814;28;19913;-70
2022/09/11 00:58:43;;;;;;;;;;;17.70;71.10;;;;;;5074768;28;19908;-72
2022/09/11 01:01:10;;;;;;;;;;;17.80;70.70;;;;;;5075203;28;19912;-71
2022/09/11 01:03:37;;;;;;;;;;;17.90;70.80;;;;;;5075121;28;19909;-69
2022/09/11 01:06:03;;;;;;;;;;;18.00;70.80;;;;;;5075194;28;19908;-70
2022/09/11 01:08:30;;;;;;;;;;;18.20;71.30;;;;;;5074342;28;19909;-70
2022/09/11 01:11:15;;;;;;;;;;;18.20;70.50;;;;;;5059390;28;19952;-69
2022/09/11 01:13:44;;;;;;;;;;;18.20;71.10;;;;;;5054118;28;19951;-70
2022/09/11 01:16:20;;;;;;;;;;;18.30;71.50;;;;;;5059619;28;19999;-73
2022/09/11 01:19:12;;;;;;;;;;;18.40;70.70;;;;;;5074506;28;20050;-71
2022/09/11 01:21:45;;;;;;;;;;;18.60;70.50;;;;;;5074631;28;19915;-73
2022/09/11 01:24:18;;;;;;;;;;;18.70;70.70;;;;;;5074341;28;20395;-69
2022/09/11 01:26:57;;;;;;;;;;;18.80;70.20;;;;;;5073735;28;19923;-71
2022/09/11 01:29:24;;;;;;;;;;;18.90;69.40;;;;;;5069499;28;19960;-73
2022/09/11 01:31:58;;;;;;;;;;;19.00;69.30;;;;;;5070794;28;19912;-69
2022/09/11 01:34:30;;;;;;;;;;;19.10;70.00;;;;;;5073526;28;19909;-68
2022/09/11 01:37:00;;;;;;;;;;;19.20;68.60;;;;;;5072224;28;20334;-70
2022/09/11 01:39:30;;;;;;;;;;;19.30;69.70;;;;;;5073959;28;19919;-70
2022/09/11 01:42:02;;;;;;;;;;;19.40;66.70;;;;;;5073738;28;19961;-72
2022/09/11 01:44:33;;;;;;;;;;;19.50;67.40;;;;;;5074168;28;19950;-70
2022/09/11 01:47:01;;;;;;;;;;;19.80;66.80;;;;;;5073067;28;19908;-68
2022/09/11 01:49:31;;;;;;;;;;;20.00;66.10;;;;;;5070818;28;19940;-69
2022/09/11 01:52:02;;;;;;;;;;;20.10;64.30;;;;;;5072644;28;20201;-73
2022/09/11 01:54:32;;;;;;;;;;;20.20;64.30;;;;;;5072310;28;19915;-70
2022/09/11 01:57:05;;;;;;;;;;;20.40;64.50;;;;;;5073310;28;20341;-69
2022/09/11 01:59:38;;;;;;;;;;;20.60;62.80;;;;;;5073253;28;20388;-69
2022/09/11 02:02:06;;;;;;;;;;;20.50;62.40;;;;;;5073486;28;19952;-69
2022/09/11 02:04:38;;;;;;;;;;;20.60;64.30;;;;;;5074020;28;19908;-68
2022/09/11 02:07:10;;;;;;;;;;;20.70;63.50;;;;;;5074135;28;19909;-71
2022/09/11 02:09:39;;;;;;;;;;;20.70;63.70;;;;;;5074199;28;19916;-69
2022/09/11 02:12:08;;;;;;;;;;;20.90;62.00;;;;;;5074486;28;19913;-74
2022/09/11 02:14:38;;;;;;;;;;;21.10;60.00;;;;;;5074226;28;19996;-70
2022/09/11 02:17:04;;;;;;;;;;;21.10;60.10;;;;;;5073766;28;19921;-68
2022/09/11 02:19:31;;;;;;;;;;;21.30;61.00;;;;;;5074144;28;19908;-71
2022/09/11 02:21:58;;;;;;;;;;;21.40;59.20;;;;;;5073780;28;20258;-69
2022/09/11 02:24:25;;;;;;;;;;;21.50;58.50;;;;;;5074059;28;20368;-69
2022/09/11 02:26:54;;;;;;;;;;;21.70;58.70;;;;;;5073845;28;20357;-68
2022/09/11 02:29:23;;;;;;;;;;;21.80;59.30;;;;;;5074016;28;19924;-69
2022/09/11 02:31:51;;;;;;;;;;;22.00;58.30;;;;;;5073907;28;19916;-70
2022/09/11 02:34:19;;;;;;;;;;;22.20;57.80;;;;;;5073905;28;19915;-70
2022/09/11 02:36:55;;;;;;;;;;;22.40;57.00;;;;;;5073722;28;20364;-69
2022/09/11 02:39:33;;;;;;;;;;;22.60;56.60;;;;;;5073693;28;19954;-72
2022/09/11 02:42:18;;;;;;;;;;;23.00;56.00;;;;;;5072274;28;19962;-68
2022/09/11 02:45:19;;;;;;;;;;;23.20;58.10;;;;;;5073750;28;20357;-69
2022/09/11 02:48:09;;;;;;;;;;;23.50;56.00;;;;;;5031367;28;20011;-68
2022/09/11 02:50:46;;;;;;;;;;;23.90;55.80;;;;;;5063533;28;19917;-69
2022/09/11 02:53:32;;;;;;;;;;;24.50;55.10;;;;;;5073135;28;19912;-69
2022/09/11 02:55:59;;;;;;;;;;;25.10;53.80;;;;;;5052069;28;19951;-68
2022/09/11 02:58:30;;;;;;;;;;;25.60;53.40;;;;;;5073174;28;19909;-71
2022/09/11 03:01:03;;;;;;;;;;;25.70;53.50;;;;;;5072981;28;19908;-71
2022/09/11 03:03:37;;;;;;;;;;;26.10;51.00;;;;;;5073178;28;19974;-70
2022/09/11 03:06:04;;;;;;;;;;;26.20;50.50;;;;;;5073489;28;20002;-69
2022/09/11 03:08:31;;;;;;;;;;;26.60;52.90;;;;;;5072985;28;19909;-73
2022/09/11 03:10:57;;;;;;;;;;;27.10;50.40;;;;;;5072867;28;19915;-72
2022/09/11 03:13:24;;;;;;;;;;;27.30;51.10;;;;;;5072677;28;20356;-69
2022/09/11 03:15:51;;;;;;;;;;;27.80;51.30;;;;;;5072835;28;19986;-70
2022/09/11 03:18:17;;;;;;;;;;;27.80;48.70;;;;;;5072775;28;20371;-70
2022/09/11 03:20:47;;;;;;;;;;;28.00;48.60;;;;;;5072604;28;19944;-68
2022/09/11 03:23:14;;;;;;;;;;;28.20;47.10;;;;;;5072625;28;19908;-69
2022/09/11 03:25:41;;;;;;;;;;;28.50;47.40;;;;;;5054229;28;19908;-70
2022/09/11 03:28:07;;;;;;;;;;;29.00;48.50;;;;;;5072756;28;19908;-70
2022/09/11 03:30:34;;;;;;;;;;;28.90;47.00;;;;;;5072653;28;20356;-72
2022/09/11 03:33:01;;;;;;;;;;;28.90;45.50;;;;;;5072650;28;19919;-69
2022/09/11 03:35:28;;;;;;;;;;;29.20;47.50;;;;;;5073131;28;20289;-69
2022/09/11 03:37:54;;;;;;;;;;;29.40;46.40;;;;;;5072680;28;19915;-70
2022/09/11 03:40:21;;;;;;;;;;;29.40;46.10;;;;;;5072244;28;20398;-70
2022/09/11 03:42:48;;;;;;;;;;;29.40;46.30;;;;;;5072356;28;19916;-69
2022/09/11 03:45:15;;;;;;;;;;;29.50;45.00;;;;;;5072400;28;19916;-70
2022/09/11 03:47:41;;;;;;;;;;;29.60;46.60;;;;;;5072518;28;20473;-69
2022/09/11 03:50:09;;;;;;;;;;;29.50;45.60;;;;;;5071881;28;19916;-70
2022/09/11 03:52:35;;;;;;;;;;;29.60;45.40;;;;;;5071738;28;19964;-69
2022/09/11 03:55:03;;;;;;;;;;;29.60;46.00;;;;;;5072015;28;19915;-69
2022/09/11 03:57:32;;;;;;;;;;;30.00;45.50;;;;;;5072112;28;20402;-70
2022/09/11 04:00:00;;;;;;;;;;;30.30;47.10;;;;;;5072198;28;20002;-70
2022/09/11 04:02:27;;;;;;;;;;;30.30;45.70;;;;;;5071918;28;20401;-70
2022/09/11 04:04:53;;;;;;;;;;;30.30;45.20;;;;;;5072200;28;19908;-72
2022/09/11 04:07:21;;;;;;;;;;;30.20;43.10;;;;;;5072209;28;19913;-70
2022/09/11 04:09:47;;;;;;;;;;;30.40;41.90;;;;;;5053871;28;19939;-69
2022/09/11 04:12:15;;;;;;;;;;;30.60;43.60;;;;;;5071901;28;19908;-73
2022/09/11 04:14:41;;;;;;;;;;;30.80;43.80;;;;;;5071703;28;20349;-69
2022/09/11 04:17:08;;;;;;;;;;;31.10;43.70;;;;;;5071363;28;19917;-70
2022/09/11 04:19:35;;;;;;;;;;;31.10;43.00;;;;;;5072273;28;19908;-70
2022/09/11 04:22:02;;;;;;;;;;;31.10;43.50;;;;;;5071768;28;19919;-68
2022/09/11 04:24:29;;;;;;;;;;;31.10;44.30;;;;;;5072033;28;19953;-70
2022/09/11 04:26:58;;;;;;;;;;;31.10;43.00;;;;;;5072264;28;19908;-69
2022/09/11 04:29:26;;;;;;;;;;;31.10;43.50;;;;;;5070430;28;19912;-69
2022/09/11 04:31:52;;;;;;;;;;;31.30;42.70;;;;;;5072443;28;19912;-69
2022/09/11 04:34:19;;;;;;;;;;;31.40;43.00;;;;;;5072173;28;19978;-69
2022/09/11 04:36:46;;;;;;;;;;;31.30;42.60;;;;;;5071676;28;20011;-70
2022/09/11 04:39:12;;;;;;;;;;;31.50;44.90;;;;;;5071532;28;19916;-70
2022/09/11 04:41:39;;;;;;;;;;;31.60;43.50;;;;;;5071932;28;19908;-71
2022/09/11 04:44:05;;;;;;;;;;;31.30;42.50;;;;;;5071830;28;19908;-71
2022/09/11 04:46:33;;;;;;;;;;;31.20;43.40;;;;;;5071882;28;19915;-70
2022/09/11 04:49:01;;;;;;;;;;;31.20;43.20;;;;;;5071871;28;19916;-70
2022/09/11 04:51:37;;;;;;;;;;;31.40;43.80;;;;;;5071901;28;19959;-70
2022/09/11 04:54:04;;;;;;;;;;;31.20;44.00;;;;;;5071671;28;19909;-73
2022/09/11 04:56:33;;;;;;;;;;;30.90;42.10;;;;;;5072163;28;19912;-72
2022/09/11 04:59:05;;;;;;;;;;;30.80;42.70;;;;;;5071940;28;20213;-73
2022/09/11 05:01:32;;;;;;;;;;;31.00;42.90;;;;;;5072105;28;19909;-70
2022/09/11 05:04:02;;;;;;;;;;;31.20;43.40;;;;;;5071804;28;19955;-71
2022/09/11 05:06:29;;;;;;;;;;;31.30;42.90;;;;;;5075679;28;20011;-71
2022/09/11 05:09:00;;;;;;;;;;;31.10;42.30;;;;;;5075037;28;19965;-69
2022/09/11 05:11:27;;;;;;;;;;;31.00;42.80;;;;;;5075379;28;20312;-70
2022/09/11 05:13:53;;;;;;;;;;;31.20;44.80;;;;;;5074965;28;19943;-72
2022/09/11 05:16:20;;;;;;;;;;;31.10;42.10;;;;;;5074905;28;19999;-71
2022/09/11 05:18:53;;;;;;;;;;;30.80;43.80;;;;;;5074934;28;19920;-70
2022/09/11 05:21:23;;;;;;;;;;;31.10;44.20;;;;;;5074966;28;20357;-69
2022/09/11 05:23:51;;;;;;;;;;;31.90;44.40;;;;;;5074870;28;19916;-70
2022/09/11 05:26:19;;;;;;;;;;;32.20;43.70;;;;;;5074914;28;19908;-71
2022/09/11 05:28:46;;;;;;;;;;;32.20;43.70;;;;;;5074640;28;19909;-71
2022/09/11 05:31:15;;;;;;;;;;;32.20;42.60;;;;;;5074861;28;19913;-69
2022/09/11 05:33:42;;;;;;;;;;;32.60;42.50;;;;;;5074983;28;19916;-70
2022/09/11 05:36:09;;;;;;;;;;;32.40;44.40;;;;;;5074676;28;19916;-71
2022/09/11 05:38:36;;;;;;;;;;;32.30;42.20;;;;;;5074749;28;19909;-69
2022/09/11 05:41:05;;;;;;;;;;;32.40;42.70;;;;;;5074466;28;19999;-70
2022/09/11 05:43:32;;;;;;;;;;;32.50;42.10;;;;;;5074658;28;19913;-71
2022/09/11 05:45:59;;;;;;;;;;;32.40;43.70;;;;;;5074689;28;20420;-72
2022/09/11 05:48:29;;;;;;;;;;;32.60;43.10;;;;;;5056312;28;19909;-69
2022/09/11 05:51:00;;;;;;;;;;;32.80;43.00;;;;;;5074274;28;19916;-69
2022/09/11 05:53:27;;;;;;;;;;;32.90;42.40;;;;;;5074291;28;19971;-69
2022/09/11 05:55:54;;;;;;;;;;;32.70;43.10;;;;;;5074322;28;20281;-70
2022/09/11 05:58:21;;;;;;;;;;;32.90;42.90;;;;;;5080411;23;20200;-75
2022/09/11 06:00:48;;;;;;;;;;;32.90;42.60;;;;;;5034654;28;20012;-75
2022/09/11 06:03:15;;;;;;;;;;;32.50;45.50;;;;;;5034720;28;19932;-74
2022/09/11 06:05:44;;;;;;;;;;;32.40;47.40;;;;;;5034224;28;19913;-75
2022/09/11 06:08:11;;;;;;;;;;;32.00;47.60;;;;;;5034380;28;19909;-75
2022/09/11 06:10:46;;;;;;;;;;;31.40;48.20;;;;;;5034388;28;19917;-74
2022/09/11 06:13:19;;;;;;;;;;;31.40;47.60;;;;;;5033696;28;19909;-74
2022/09/11 06:15:46;;;;;;;;;;;30.60;48.60;;;;;;5033752;28;19949;-76
2022/09/11 06:18:13;;;;;;;;;;;30.20;49.70;;;;;;5034211;28;19909;-75
2022/09/11 06:20:40;;;;;;;;;;;29.90;49.60;;;;;;5033924;28;19962;-77
2022/09/11 06:23:10;;;;;;;;;;;29.40;50.80;;;;;;5033751;28;19909;-74
2022/09/11 06:25:37;;;;;;;;;;;28.90;51.40;;;;;;5033780;28;19967;-77
2022/09/11 06:28:04;;;;;;;;;;;28.70;51.40;;;;;;5033974;28;19916;-74
2022/09/11 06:30:32;;;;;;;;;;;28.90;52.20;;;;;;5033822;28;19968;-74
2022/09/11 06:32:58;;;;;;;;;;;29.00;52.40;;;;;;5033757;28;19916;-74
2022/09/11 06:35:25;;;;;;;;;;;29.00;51.50;;;;;;5033837;28;19948;-73
2022/09/11 06:37:52;;;;;;;;;;;28.90;51.90;;;;;;5033592;28;19909;-76
2022/09/11 06:40:18;;;;;;;;;;;28.60;52.00;;;;;;5033549;28;19948;-76
2022/09/11 06:42:45;;;;;;;;;;;28.60;52.20;;;;;;5033496;28;19909;-73
2022/09/11 06:45:11;;;;;;;;;;;28.30;52.40;;;;;;5033894;28;19955;-77
2022/09/11 06:47:38;;;;;;;;;;;27.80;53.20;;;;;;5033549;28;20422;-78
2022/09/11 06:50:05;;;;;;;;;;;27.50;53.90;;;;;;5033302;28;19921;-77
2022/09/11 06:52:34;;;;;;;;;;;26.80;54.70;;;;;;5033412;28;19956;-76
2022/09/11 06:55:01;;;;;;;;;;;26.10;55.80;;;;;;5033274;28;19917;-77
2022/09/11 06:57:28;;;;;;;;;;;25.20;57.20;;;;;;5033217;28;19915;-76
2022/09/11 06:59:56;;;;;;;;;;;24.40;58.80;;;;;;5063994;28;19966;-77
2022/09/11 07:02:24;;;;;;;;;;;23.70;59.90;;;;;;5073294;28;19956;-77
2022/09/11 07:04:52;;;;;;;;;;;22.80;61.70;;;;;;5055263;28;19935;-77
2022/09/11 07:07:18;;;;;;;;;;;22.10;63.40;;;;;;5054847;28;20383;-76
2022/09/11 07:09:45;;;;;;;;;;;21.60;64.20;;;;;;5073149;28;19916;-77
2022/09/11 07:12:11;;;;;;;;;;;21.30;65.40;;;;;;5055347;28;20276;-76
2022/09/11 07:14:39;;;;;;;;;;;21.10;65.90;;;;;;5073103;28;19908;-76
2022/09/11 07:17:06;;;;;;;;;;;20.90;66.50;;;;;;5072754;28;19944;-76
2022/09/11 07:19:32;;;;;;;;;;;20.60;67.10;;;;;;5072947;28;20388;-76
2022/09/11 07:21:59;;;;;;;;;;;20.50;67.30;;;;;;5054732;28;19952;-76
2022/09/11 07:24:25;;;;;;;;;;;20.40;67.60;;;;;;5054596;28;19908;-76
2022/09/11 07:26:53;;;;;;;;;;;20.20;68.10;;;;;;5071928;28;19950;-76
2022/09/11 07:29:21;;;;;;;;;;;20.10;68.80;;;;;;5072567;28;20304;-76
2022/09/11 07:31:47;;;;;;;;;;;20.00;69.20;;;;;;5072575;28;19977;-76
2022/09/11 07:34:14;;;;;;;;;;;20.00;69.70;;;;;;5072759;28;19909;-76
2022/09/11 07:36:41;;;;;;;;;;;19.90;70.50;;;;;;5072409;28;20391;-76
2022/09/11 07:39:07;;;;;;;;;;;19.80;70.80;;;;;;5072392;28;19916;-76
2022/09/11 07:41:34;;;;;;;;;;;19.80;70.90;;;;;;5072432;28;19997;-76
2022/09/11 07:44:02;;;;;;;;;;;19.70;71.70;;;;;;5072548;28;19915;-74
2022/09/11 07:46:29;;;;;;;;;;;19.60;72.40;;;;;;5072575;28;20365;-74
2022/09/11 07:48:57;;;;;;;;;;;19.50;72.20;;;;;;5072244;28;19951;-75
2022/09/11 07:51:25;;;;;;;;;;;19.40;72.50;;;;;;5072464;28;19912;-75
2022/09/11 07:53:53;;;;;;;;;;;19.30;73.30;;;;;;5072389;28;20357;-75
2022/09/11 07:56:24;;;;;;;;;;;19.30;73.80;;;;;;5072238;28;20280;-75
2022/09/11 07:58:51;;;;;;;;;;;19.20;74.00;;;;;;5043869;28;20003;-73
2022/09/11 08:01:19;;;;;;;;;;;19.10;74.40;;;;;;5032064;28;20361;-76
2022/09/11 08:03:48;;;;;;;;;;;19.00;75.30;;;;;;5030096;28;20285;-76
2022/09/11 08:06:16;;;;;;;;;;;18.90;75.20;;;;;;5032455;28;19940;-76
2022/09/11 08:08:43;;;;;;;;;;;18.80;75.60;;;;;;5032001;28;19959;-77
2022/09/11 08:11:14;;;;;;;;;;;18.70;75.90;;;;;;5032331;28;19962;-76
2022/09/11 08:13:41;;;;;;;;;;;18.60;76.50;;;;;;5032361;28;19917;-76
2022/09/11 08:16:08;;;;;;;;;;;18.50;77.40;;;;;;5031955;28;19913;-76
2022/09/11 08:18:36;;;;;;;;;;;18.40;77.80;;;;;;5031523;28;20373;-75
2022/09/11 08:21:08;;;;;;;;;;;18.40;78.30;;;;;;5031550;28;19965;-75
2022/09/11 08:23:35;;;;;;;;;;;18.40;78.70;;;;;;5031948;28;20337;-75
2022/09/11 08:26:04;;;;;;;;;;;18.30;79.40;;;;;;5032203;28;19992;-75
2022/09/11 08:28:30;;;;;;;;;;;18.10;80.20;;;;;;5032140;28;19909;-75
2022/09/11 08:31:04;;;;;;;;;;;18.10;80.90;;;;;;5030475;28;19986;-75
2022/09/11 08:33:32;;;;;;;;;;;18.00;81.40;;;;;;5032083;28;19909;-75
2022/09/11 08:35:59;;;;;;;;;;;18.00;81.50;;;;;;5032046;28;20278;-75
2022/09/11 08:38:26;;;;;;;;;;;18.00;81.80;;;;;;5032676;28;19909;-74
2022/09/11 08:40:53;;;;;;;;;;;17.90;82.60;;;;;;5036221;28;19910;-74
2022/09/11 08:43:27;;;;;;;;;;;17.80;82.60;;;;;;5036190;28;20002;-74
2022/09/11 08:45:57;;;;;;;;;;;17.80;83.30;;;;;;5035706;28;19943;-74
2022/09/11 08:48:29;;;;;;;;;;;17.80;83.40;;;;;;5035545;28;20329;-74
2022/09/11 08:50:55;;;;;;;;;;;17.80;83.60;;;;;;5035793;28;19925;-74
2022/09/11 08:53:22;;;;;;;;;;;17.60;83.90;;;;;;5035901;28;19909;-75
2022/09/11 08:55:55;;;;;;;;;;;17.60;83.80;;;;;;5035942;28;19969;-75
2022/09/11 08:58:30;;;;;;;;;;;17.60;84.40;;;;;;5040620;28;19992;-75
2022/09/11 09:01:03;;;;;;;;;;;17.60;84.60;;;;;;5075726;28;19913;-75
2022/09/11 09:03:35;;;;;;;;;;;17.50;84.20;;;;;;5066183;28;19920;-73
2022/09/11 09:06:20;;;;;;;;;;;17.60;83.50;;;;;;5063863;28;19916;-75
2022/09/11 09:09:06;;;;;;;;;;;17.50;83.00;;;;;;5065218;28;19943;-74
2022/09/11 09:11:36;;;;;;;;;;;17.50;81.60;;;;;;5067465;28;20002;-73
2022/09/11 09:14:05;;;;;;;;;;;17.60;80.80;;;;;;5074908;28;19913;-73
2022/09/11 09:16:33;;;;;;;;;;;17.60;80.30;;;;;;5074873;28;19943;-76
2022/09/11 09:19:18;;;;;;;;;;;17.70;80.10;;;;;;5074860;28;19908;-74
2022/09/11 09:21:49;;;;;;;;;;;17.70;80.50;;;;;;5074972;28;20272;-75
2022/09/11 09:24:20;;;;;;;;;;;17.70;82.50;;;;;;5074281;28;19908;-73
2022/09/11 09:26:54;;;;;;;;;;;17.70;81.90;;;;;;5074122;28;20349;-77
2022/09/11 09:29:22;;;;;;;;;;;17.60;82.90;;;;;;5073896;28;20312;-76
2022/09/11 09:31:56;;;;;;;;;;;17.60;82.80;;;;;;5074475;28;19915;-74
2022/09/11 09:34:26;;;;;;;;;;;17.60;84.10;;;;;;5074593;28;20376;-75
2022/09/11 09:36:58;;;;;;;;;;;17.50;83.90;;;;;;5074331;28;19935;-75
2022/09/11 09:39:25;;;;;;;;;;;17.50;84.70;;;;;;5063648;28;19917;-75
2022/09/11 09:41:52;;;;;;;;;;;17.50;85.00;;;;;;5055702;28;19939;-76
2022/09/11 09:44:22;;;;;;;;;;;17.30;84.80;;;;;;5054120;28;20390;-76
2022/09/11 09:46:51;;;;;;;;;;;17.30;85.70;;;;;;5053839;28;19909;-76
2022/09/11 09:49:31;;;;;;;;;;;17.20;85.80;;;;;;5065222;28;20380;-73
2022/09/11 09:52:02;;;;;;;;;;;17.20;85.90;;;;;;5072969;28;19912;-75
2022/09/11 09:54:30;;;;;;;;;;;17.20;85.70;;;;;;5073585;28;19908;-75
2022/09/11 09:57:04;;;;;;;;;;;17.10;86.60;;;;;;5064411;28;19970;-74
2022/09/11 09:59:46;;;;;;;;;;;17.10;86.10;;;;;;5070853;28;20298;-76
2022/09/11 10:02:30;;;;;;;;;;;17.10;86.00;;;;;;5066999;28;19935;-73
2022/09/11 10:05:15;;;;;;;;;;;16.90;84.10;;;;;;5062278;28;19919;-76
2022/09/11 10:07:49;;;;;;;;;;;16.90;83.10;;;;;;5053859;28;20435;-77
2022/09/11 10:10:38;;;;;;;;;;;16.90;81.60;;;;;;5072878;28;19916;-76
2022/09/11 10:13:24;;;;;;;;;;;16.80;80.40;;;;;;5064247;28;19917;-77
2022/09/11 10:15:52;;;;;;;;;;;16.80;79.40;;;;;;5062459;28;19909;-75
2022/09/11 10:18:36;;;;;;;;;;;16.80;78.90;;;;;;5064129;28;19909;-75
2022/09/11 10:21:12;;;;;;;;;;;16.80;78.30;;;;;;5076999;28;20015;-76
2022/09/11 10:23:58;;;;;;;;;;;16.70;77.60;;;;;;5061282;28;20320;-74
2022/09/11 10:26:49;;;;;;;;;;;16.70;77.70;;;;;;5063635;28;19909;-77
2022/09/11 10:29:16;;;;;;;;;;;16.70;76.50;;;;;;5063558;28;20276;-76
2022/09/11 10:32:02;;;;;;;;;;;16.60;75.60;;;;;;5064402;28;19927;-74
2022/09/11 10:34:37;;;;;;;;;;;16.50;75.60;;;;;;5063693;28;19970;-76
2022/09/11 10:37:06;;;;;;;;;;;16.50;74.70;;;;;;5052771;28;19909;-77
2022/09/11 10:39:35;;;;;;;;;;;16.50;75.40;;;;;;5053186;28;19919;-76
2022/09/11 10:42:20;;;;;;;;;;;16.60;75.70;;;;;;5053584;28;19909;-77
2022/09/11 10:44:48;;;;;;;;;;;16.50;74.80;;;;;;5054828;28;20003;-77
2022/09/11 10:47:18;;;;;;;;;;;16.40;74.50;;;;;;5072735;28;19932;-79
2022/09/11 10:49:46;;;;;;;;;;;16.50;74.50;;;;;;5073301;28;19962;-76
2022/09/11 10:52:12;;;;;;;;;;;16.50;74.50;;;;;;5072517;28;19915;-75
2022/09/11 10:54:59;;;;;;;;;;;16.40;74.20;;;;;;5072501;28;19974;-76
2022/09/11 10:57:28;;;;;;;;;;;16.30;74.30;;;;;;5072237;28;19909;-75
2022/09/11 11:00:13;;;;;;;;;;;16.30;75.30;;;;;;5072456;28;19920;-75
2022/09/11 11:02:42;;;;;;;;;;;16.30;74.70;;;;;;5071304;28;19912;-75
2022/09/11 11:05:25;;;;;;;;;;;16.20;75.30;;;;;;5071588;28;20405;-76
2022/09/11 11:07:52;;;;;;;;;;;16.10;76.10;;;;;;5071271;28;19913;-76
2022/09/11 11:10:31;;;;;;;;;;;16.10;74.90;;;;;;5072399;28;19916;-75
2022/09/11 11:13:21;;;;;;;;;;;16.00;75.20;;;;;;5054537;28;19915;-75
2022/09/11 11:15:56;;;;;;;;;;;15.90;75.10;;;;;;5052879;28;19947;-74
2022/09/11 11:18:42;;;;;;;;;;;15.90;74.70;;;;;;5072489;28;19951;-76
2022/09/11 11:21:09;;;;;;;;;;;15.90;74.80;;;;;;5070637;28;19908;-75
2022/09/11 11:23:54;;;;;;;;;;;15.80;74.50;;;;;;5071887;28;20419;-76
2022/09/11 11:26:24;;;;;;;;;;;15.80;74.90;;;;;;5072178;28;19912;-74
2022/09/11 11:29:13;;;;;;;;;;;15.80;74.70;;;;;;5068782;28;19916;-76
2022/09/11 11:31:40;;;;;;;;;;;15.70;74.60;;;;;;5060525;28;20273;-76
2022/09/11 11:34:13;;;;;;;;;;;15.60;74.70;;;;;;5062180;28;19924;-75
2022/09/11 11:36:43;;;;;;;;;;;15.60;74.50;;;;;;5071808;28;19908;-74
2022/09/11 11:39:12;;;;;;;;;;;15.50;74.50;;;;;;5071746;28;19909;-74
2022/09/11 11:41:43;;;;;;;;;;;15.40;74.80;;;;;;5071368;28;19995;-75
2022/09/11 11:44:12;;;;;;;;;;;15.40;75.50;;;;;;5053337;28;20381;-75
2022/09/11 11:46:42;;;;;;;;;;;15.40;74.50;;;;;;5071288;28;19908;-74
2022/09/11 11:49:11;;;;;;;;;;;15.40;74.80;;;;;;5071277;28;19959;-74
2022/09/11 11:51:43;;;;;;;;;;;15.30;75.30;;;;;;5072200;28;19924;-75
2022/09/11 11:54:19;;;;;;;;;;;15.20;74.50;;;;;;5071767;28;19958;-74
2022/09/11 11:56:49;;;;;;;;;;;15.20;74.80;;;;;;5071346;28;19915;-74
2022/09/11 11:59:18;;;;;;;;;;;15.00;75.10;;;;;;5071395;28;19943;-74
2022/09/11 12:01:48;;;;;;;;;;;15.00;75.00;;;;;;5072004;28;19909;-74
2022/09/11 12:04:26;;;;;;;;;;;15.00;74.90;;;;;;5071902;28;19999;-73
2022/09/11 12:06:53;;;;;;;;;;;14.90;75.10;;;;;;5071870;28;20266;-74
2022/09/11 12:09:20;;;;;;;;;;;14.90;75.40;;;;;;5053564;28;20413;-75
2022/09/11 12:11:49;;;;;;;;;;;14.90;75.60;;;;;;5071056;28;19938;-75
2022/09/11 12:14:26;;;;;;;;;;;14.80;75.80;;;;;;5075335;28;19912;-74
2022/09/11 12:16:54;;;;;;;;;;;14.80;76.10;;;;;;5078211;28;19912;-74
2022/09/11 12:19:24;;;;;;;;;;;14.80;75.50;;;;;;5078200;28;19919;-73
2022/09/11 12:21:53;;;;;;;;;;;14.70;76.00;;;;;;5077464;28;19915;-77
2022/09/11 12:24:21;;;;;;;;;;;14.70;76.00;;;;;;5078027;28;19908;-75
2022/09/11 12:27:08;;;;;;;;;;;14.70;75.30;;;;;;5077989;28;19919;-74
2022/09/11 12:29:42;;;;;;;;;;;14.60;75.70;;;;;;5078078;28;19916;-77
2022/09/11 12:32:15;;;;;;;;;;;14.60;75.60;;;;;;5076562;28;19993;-75
2022/09/11 12:34:45;;;;;;;;;;;14.60;76.10;;;;;;5076414;28;19915;-75
2022/09/11 12:37:23;;;;;;;;;;;14.60;75.80;;;;;;5075938;28;19908;-75
2022/09/11 12:39:51;;;;;;;;;;;14.50;75.70;;;;;;5076155;28;19923;-75
2022/09/11 12:42:30;;;;;;;;;;;14.50;76.00;;;;;;5076135;28;19935;-76
2022/09/11 12:44:58;;;;;;;;;;;14.50;76.00;;;;;;5076330;28;19912;-76
2022/09/11 12:47:34;;;;;;;;;;;14.40;76.30;;;;;;5076286;28;19995;-76
2022/09/11 12:50:00;;;;;;;;;;;14.40;76.20;;;;;;5076138;28;20386;-76
2022/09/11 12:52:32;;;;;;;;;;;14.40;76.50;;;;;;5076449;28;19914;-76
2022/09/11 12:55:02;;;;;;;;;;;14.40;76.80;;;;;;5076007;28;19908;-75
2022/09/11 12:57:33;;;;;;;;;;;14.40;76.40;;;;;;5077043;28;19908;-76
2022/09/11 13:00:03;;;;;;;;;;;14.30;77.20;;;;;;5077566;28;19974;-74
2022/09/11 13:02:38;;;;;;;;;;;14.30;77.50;;;;;;5077978;28;20002;-76
2022/09/11 13:05:15;;;;;;;;;;;14.20;77.00;;;;;;5077908;28;19908;-75
2022/09/11 13:07:44;;;;;;;;;;;14.20;76.80;;;;;;5077667;28;19909;-77
2022/09/11 13:10:40;;;;;;;;;;;14.20;77.10;;;;;;5077762;28;19921;-73
2022/09/11 13:13:25;;;;;;;;;;;14.20;77.30;;;;;;5061116;28;20424;-75
2022/09/11 13:15:56;;;;;;;;;;;14.10;77.30;;;;;;5077923;28;19909;-75
2022/09/11 13:18:24;;;;;;;;;;;14.10;77.40;;;;;;5078351;28;19958;-74
2022/09/11 13:20:59;;;;;;;;;;;14.00;77.50;;;;;;5068197;28;19966;-73
2022/09/11 13:23:26;;;;;;;;;;;14.00;78.00;;;;;;5067574;28;19915;-72
2022/09/11 13:25:57;;;;;;;;;;;14.00;77.60;;;;;;5065435;28;19975;-75
2022/09/11 13:28:24;;;;;;;;;;;14.00;77.60;;;;;;5063922;28;19932;-73
2022/09/11 13:30:53;;;;;;;;;;;13.90;78.00;;;;;;5062736;28;19917;-75
2022/09/11 13:33:26;;;;;;;;;;;13.90;78.30;;;;;;5065470;28;19937;-76
2022/09/11 13:35:54;;;;;;;;;;;13.90;78.10;;;;;;5067327;28;19959;-75
2022/09/11 13:38:23;;;;;;;;;;;13.90;78.40;;;;;;5063961;28;19962;-74
2022/09/11 13:40:56;;;;;;;;;;;13.80;78.40;;;;;;5062507;28;20372;-74
2022/09/11 13:43:29;;;;;;;;;;;13.80;78.20;;;;;;5064878;28;20353;-76
2022/09/11 13:46:09;;;;;;;;;;;13.80;78.20;;;;;;5066930;28;19916;-75
2022/09/11 13:48:35;;;;;;;;;;;13.70;78.30;;;;;;5064368;28;19954;-76
2022/09/11 13:51:04;;;;;;;;;;;13.70;79.10;;;;;;5063336;28;20035;-75
2022/09/11 13:53:32;;;;;;;;;;;13.70;78.90;;;;;;5061613;28;19963;-73
2022/09/11 13:55:59;;;;;;;;;;;13.60;78.60;;;;;;5065645;28;19970;-73
2022/09/11 13:58:34;;;;;;;;;;;13.60;78.90;;;;;;5063429;28;19920;-75
2022/09/11 14:01:10;;;;;;;;;;;13.50;78.60;;;;;;5063939;28;19908;-74
2022/09/11 14:03:39;;;;;;;;;;;13.50;78.80;;;;;;5066492;28;19908;-75
2022/09/11 14:06:10;;;;;;;;;;;13.60;78.90;;;;;;5063882;28;20369;-73
2022/09/11 14:08:41;;;;;;;;;;;13.50;78.90;;;;;;5063645;28;19909;-75
2022/09/11 14:11:08;;;;;;;;;;;13.50;79.00;;;;;;5063915;28;20369;-76
2022/09/11 14:13:49;;;;;;;;;;;13.50;78.90;;;;;;5062102;28;19996;-74
2022/09/11 14:16:16;;;;;;;;;;;13.40;78.80;;;;;;5064464;28;19984;-75
2022/09/11 14:18:45;;;;;;;;;;;13.40;78.50;;;;;;5062769;28;19909;-76
2022/09/11 14:21:14;;;;;;;;;;;13.40;78.80;;;;;;5064495;28;19915;-77
2022/09/11 14:23:50;;;;;;;;;;;13.40;79.00;;;;;;5062874;28;20293;-75
2022/09/11 14:26:37;;;;;;;;;;;13.40;78.90;;;;;;5066982;28;19912;-77
2022/09/11 14:29:23;;;;;;;;;;;13.30;78.80;;;;;;5064979;28;19908;-75
2022/09/11 14:31:50;;;;;;;;;;;13.30;79.10;;;;;;5062618;28;19964;-76
2022/09/11 14:34:19;;;;;;;;;;;13.20;79.40;;;;;;5062705;28;20007;-77
2022/09/11 14:37:08;;;;;;;;;;;13.20;78.80;;;;;;5063188;28;19932;-76